M I D A S
Marine Information and Data Acquisition System
Tripno 63 of the Zeeleeuw from 2001-08-31 06:08:46 to 2001-08-31 19:00:00
Back to CruiseResearch ActivitiesStationsMapUnderway DataData graphs

EquipmentUnitsComment
TimeDGPSUTC
LatitudeDGPSDM.mWGS84
LongitudeDGPSDM.mWGS84
TemperatureSBE03/SBE38deg celciusITS90
ConductivitySBE21S/mITS90
SalinitySBE21 Practical Salinity Units
ChlorophylAChelsea fluorimeterg/lCalibrated in Aceton
Missing or incorrect values are displayed as -999
Sea surface data collected by the RV Zeeleeuw from 2001-08-31 06:08:46 to 2001-08-31 19:00:00
Time Latitude Longitude Temperature Conductivity Salinity ChlorophylA
2001-08-31 06:09:52 51°13.678 2°55.922 -999 -999 -999  
2001-08-31 06:10:52 51°13.678 2°55.922 -999 -999 -999  
2001-08-31 06:11:52 51°13.678 2°55.922 -999 -999 -999  
2001-08-31 06:12:52 51°13.678 2°55.922 -999 -999 -999  
2001-08-31 06:13:52 51°13.677 2°55.922 -999 -999 -999  
2001-08-31 06:14:52 51°13.678 2°55.922 -999 -999 -999  
2001-08-31 06:15:52 51°13.678 2°55.922 -999 -999 -999  
2001-08-31 06:16:52 51°13.678 2°55.922 -999 -999 -999  
2001-08-31 06:17:52 51°13.678 2°55.923 -999 -999 -999  
2001-08-31 07:12:34 51°13.68 2°55.922 -999 -999 -999  
2001-08-31 07:13:35 51°13.679 2°55.923 -999 -999 -999  
2001-08-31 07:14:30 51°13.679 2°55.923 -999 -999 -999  
2001-08-31 07:15:30 51°13.679 2°55.922 -999 -999 -999  
2001-08-31 07:16:30 51°13.678 2°55.922 -999 -999 -999  
2001-08-31 07:17:30 51°13.678 2°55.922 -999 -999 -999  
2001-08-31 07:18:30 51°13.678 2°55.922 -999 -999 -999  
2001-08-31 07:19:30 51°13.678 2°55.922 -999 -999 -999  
2001-08-31 07:20:30 51°13.678 2°55.922 -999 -999 -999  
2001-08-31 07:21:30 51°13.678 2°55.922 -999 -999 -999  
2001-08-31 07:22:30 51°13.678 2°55.922 -999 -999 -999  
2001-08-31 07:23:30 51°13.677 2°55.922 -999 -999 -999  
2001-08-31 07:24:30 51°13.677 2°55.923 -999 -999 -999  
2001-08-31 07:25:30 51°13.677 2°55.922 -999 -999 -999  
2001-08-31 07:26:30 51°13.678 2°55.923 -999 -999 -999  
2001-08-31 07:27:30 51°13.678 2°55.925 -999 -999 -999  
2001-08-31 07:28:30 51°13.678 2°55.925 -999 -999 -999  
2001-08-31 07:29:30 51°13.678 2°55.925 -999 -999 -999  
2001-08-31 07:30:30 51°13.678 2°55.925 -999 -999 -999  
2001-08-31 07:31:30 51°13.677 2°55.925 -999 -999 -999  
2001-08-31 07:32:30 51°13.677 2°55.925 -999 -999 -999  
2001-08-31 07:33:30 51°13.677 2°55.924 -999 -999 -999  
2001-08-31 07:34:30 51°13.676 2°55.924 -999 -999 -999  
2001-08-31 07:35:30 51°13.676 2°55.924 -999 -999 -999  
2001-08-31 07:36:30 51°13.676 2°55.924 -999 -999 -999  
2001-08-31 07:37:30 51°13.675 2°55.923 -999 -999 -999  
2001-08-31 07:38:30 51°13.674 2°55.922 -999 -999 -999  
2001-08-31 07:39:32 51°13.675 2°55.841 -999 -999 -999  
2001-08-31 07:40:30 51°13.669 2°55.768 -999 -999 -999  
2001-08-31 07:41:30 51°13.695 2°55.784 -999 -999 -999  
2001-08-31 07:42:30 51°13.721 2°55.76 -999 -999 -999  
2001-08-31 07:43:30 51°13.813 2°55.657 -999 -999 -999  
2001-08-31 07:44:30 51°13.926 2°55.567 -999 -999 -999  
2001-08-31 07:45:30 51°14.034 2°55.49 -999 -999 -999  
2001-08-31 07:46:30 51°14.122 2°55.426 -999 -999 -999  
2001-08-31 07:47:30 51°14.226 2°55.313 -999 -999 -999  
2001-08-31 07:48:30 51°14.342 2°55.12 -999 -999 -999  
2001-08-31 07:49:30 51°14.48 2°54.898 -999 -999 -999  
2001-08-31 07:50:30 51°14.638 2°54.706 -999 -999 -999  
2001-08-31 07:51:30 51°14.81 2°54.548 -999 -999 -999  
2001-08-31 07:52:30 51°14.988 2°54.402 -999 -999 -999  
2001-08-31 07:53:30 51°15.167 2°54.249 -999 -999 -999  
2001-08-31 07:54:30 51°15.355 2°54.086 -999 -999 -999  
2001-08-31 07:55:30 51°15.545 2°53.915 -999 -999 -999  
2001-08-31 07:56:30 51°15.733 2°53.739 -999 -999 -999  
2001-08-31 07:57:30 51°15.92 2°53.561 -999 -999 -999  
2001-08-31 07:58:30 51°16.106 2°53.388 -999 -999 -999  
2001-08-31 07:59:30 51°16.293 2°53.215 -999 -999 -999  
2001-08-31 08:00:30 51°16.481 2°53.039 -999 -999 -999  
2001-08-31 08:01:30 51°16.668 2°52.863 -999 -999 -999  
2001-08-31 08:02:30 51°16.851 2°52.686 -999 -999 -999  
2001-08-31 08:03:30 51°17.032 2°52.508 -999 -999 -999  
2001-08-31 08:04:30 51°17.213 2°52.326 -999 -999 -999  
2001-08-31 08:05:30 51°17.393 2°52.14 -999 -999 -999  
2001-08-31 08:06:30 51°17.571 2°51.954 -999 -999 -999  
2001-08-31 08:07:30 51°17.694 2°51.675 -999 -999 -999  
2001-08-31 08:08:30 51°17.784 2°51.355 -999 -999 -999  
2001-08-31 08:09:30 51°17.869 2°51.028 -999 -999 -999  
2001-08-31 08:10:30 51°17.957 2°50.704 -999 -999 -999  
2001-08-31 08:11:30 51°18.046 2°50.379 -999 -999 -999  
2001-08-31 08:12:30 51°18.132 2°50.048 -999 -999 -999  
2001-08-31 08:13:30 51°18.22 2°49.722 -999 -999 -999  
2001-08-31 08:14:30 51°18.308 2°49.394 -999 -999 -999  
2001-08-31 08:15:30 51°18.396 2°49.069 -999 -999 -999  
2001-08-31 08:16:30 51°18.484 2°48.744 -999 -999 -999  
2001-08-31 08:17:30 51°18.572 2°48.417 -999 -999 -999  
2001-08-31 08:18:30 51°18.663 2°48.089 -999 -999 -999  
2001-08-31 08:19:30 51°18.752 2°47.761 -999 -999 -999  
2001-08-31 08:20:30 51°18.84 2°47.428 -999 -999 -999  
2001-08-31 08:21:30 51°18.933 2°47.098 -999 -999 -999  
2001-08-31 08:22:30 51°19.023 2°46.767 -999 -999 -999  
2001-08-31 08:23:30 51°19.117 2°46.439 -999 -999 -999  
2001-08-31 08:24:30 51°19.207 2°46.11 -999 -999 -999  
2001-08-31 08:25:30 51°19.3 2°45.782 -999 -999 -999  
2001-08-31 08:26:30 51°19.389 2°45.459 -999 -999 -999  
2001-08-31 08:27:30 51°19.476 2°45.133 -999 -999 -999  
2001-08-31 08:28:30 51°19.564 2°44.806 -999 -999 -999  
2001-08-31 08:29:30 51°19.651 2°44.476 -999 -999 -999  
2001-08-31 08:30:30 51°19.735 2°44.145 -999 -999 -999  
2001-08-31 08:32:35 51°19.923 2°43.455 -999 -999 -999  
2001-08-31 08:33:35 51°20.013 2°43.127 -999 -999 -999  
2001-08-31 08:34:35 51°20.105 2°42.802 -999 -999 -999  
2001-08-31 08:35:35 51°20.192 2°42.475 -999 -999 -999  
2001-08-31 08:36:35 51°20.279 2°42.152 -999 -999 -999  
2001-08-31 08:37:35 51°20.363 2°41.829 -999 -999 -999  
2001-08-31 08:38:35 51°20.456 2°41.514 -999 -999 -999  
2001-08-31 08:39:35 51°20.539 2°41.189 -999 -999 -999  
2001-08-31 08:40:36 51°20.636 2°40.865 -999 -999 -999  
2001-08-31 08:41:35 51°20.726 2°40.551 -999 -999 -999  
2001-08-31 08:42:35 51°20.817 2°40.23 -999 -999 -999  
2001-08-31 08:43:35 51°20.903 2°39.904 -999 -999 -999  
2001-08-31 08:44:36 51°20.988 2°39.572 -999 -999 -999  
2001-08-31 08:45:35 51°20.998 2°39.222 -999 -999 -999  
2001-08-31 08:46:35 51°20.992 2°38.863 -999 -999 -999  
2001-08-31 08:47:35 51°20.995 2°38.504 -999 -999 -999  
2001-08-31 08:48:35 51°21.005 2°38.145 -999 -999 -999  
2001-08-31 08:49:35 51°21.009 2°37.785 -999 -999 -999  
2001-08-31 08:50:35 51°21.026 2°37.426 -999 -999 -999  
2001-08-31 08:51:35 51°21.028 2°37.069 -999 -999 -999  
2001-08-31 08:52:35 51°21.04 2°36.714 -999 -999 -999  
2001-08-31 08:53:35 51°21.059 2°36.362 -999 -999 -999  
2001-08-31 08:54:35 51°21.084 2°36.01 -999 -999 -999  
2001-08-31 08:55:35 51°21.098 2°35.661 -999 -999 -999  
2001-08-31 08:56:35 51°21.113 2°35.313 -999 -999 -999  
2001-08-31 08:57:35 51°21.128 2°34.967 -999 -999 -999  
2001-08-31 08:58:35 51°21.138 2°34.621 -999 -999 -999  
2001-08-31 08:59:35 51°21.154 2°34.278 -999 -999 -999  
2001-08-31 09:00:35 51°21.164 2°33.934 -999 -999 -999  
2001-08-31 09:01:35 51°21.174 2°33.597 -999 -999 -999  
2001-08-31 09:02:35 51°21.193 2°33.255 -999 -999 -999  
2001-08-31 09:03:35 51°21.194 2°32.91 -999 -999 -999  
2001-08-31 09:04:35 51°21.204 2°32.564 -999 -999 -999  
2001-08-31 09:05:35 51°21.227 2°32.228 -999 -999 -999  
2001-08-31 09:06:35 51°21.376 2°32.016 -999 -999 -999  
2001-08-31 09:07:35 51°21.576 2°31.908 -999 -999 -999  
2001-08-31 09:08:35 51°21.776 2°31.779 -999 -999 -999  
2001-08-31 09:09:35 51°21.967 2°31.62 -999 -999 -999  
2001-08-31 09:10:35 51°22.152 2°31.44 -999 -999 -999  
2001-08-31 09:11:35 51°22.335 2°31.259 -999 -999 -999  
2001-08-31 09:12:35 51°22.507 2°31.048 -999 -999 -999  
2001-08-31 09:13:35 51°22.63 2°30.771 -999 -999 -999  
2001-08-31 09:14:35 51°22.665 2°30.433 -999 -999 -999  
2001-08-31 09:15:35 51°22.628 2°30.096 -999 -999 -999  
2001-08-31 09:16:35 51°22.574 2°29.765 -999 -999 -999  
2001-08-31 09:17:35 51°22.523 2°29.435 -999 -999 -999  
2001-08-31 09:18:35 51°22.466 2°29.105 -999 -999 -999  
2001-08-31 09:19:35 51°22.402 2°28.777 -999 -999 -999  
2001-08-31 09:20:35 51°22.339 2°28.452 -999 -999 -999  
2001-08-31 09:21:35 51°22.285 2°28.122 -999 -999 -999  
2001-08-31 09:22:35 51°22.22 2°27.796 -999 -999 -999  
2001-08-31 09:23:35 51°22.165 2°27.462 -999 -999 -999  
2001-08-31 09:24:35 51°22.093 2°27.133 -999 -999 -999  
2001-08-31 09:25:35 51°22.025 2°26.804 -999 -999 -999  
2001-08-31 09:26:35 51°22.007 2°26.465 -999 -999 -999  
2001-08-31 09:27:35 51°22.065 2°26.143 -999 -999 -999  
2001-08-31 09:28:35 51°22.17 2°25.849 -999 -999 -999  
2001-08-31 09:29:35 51°22.309 2°25.592 -999 -999 -999  
2001-08-31 09:30:35 51°22.435 2°25.319 -999 -999 -999  
2001-08-31 09:31:35 51°22.559 2°25.049 -999 -999 -999  
2001-08-31 09:32:35 51°22.752 2°24.92 -999 -999 -999  
2001-08-31 09:33:35 51°22.967 2°24.849 -999 -999 -999  
2001-08-31 09:34:35 51°23.184 2°24.784 -999 -999 -999  
2001-08-31 09:35:35 51°23.396 2°24.706 -999 -999 -999  
2001-08-31 09:36:35 51°23.606 2°24.616 -999 -999 -999  
2001-08-31 09:37:35 51°23.821 2°24.541 -999 -999 -999  
2001-08-31 09:38:36 51°24.039 2°24.478 -999 -999 -999  
2001-08-31 09:39:36 51°24.255 2°24.413 -999 -999 -999  
2001-08-31 09:40:36 51°24.471 2°24.345 -999 -999 -999  
2001-08-31 09:41:36 51°24.685 2°24.282 -999 -999 -999  
2001-08-31 09:42:36 51°24.901 2°24.22 -999 -999 -999  
2001-08-31 09:43:36 51°25.117 2°24.155 -999 -999 -999  
2001-08-31 09:44:36 51°25.331 2°24.083 -999 -999 -999  
2001-08-31 09:45:36 51°25.544 2°24.011 -999 -999 -999  
2001-08-31 09:46:36 51°25.757 2°23.935 -999 -999 -999  
2001-08-31 09:47:36 51°25.972 2°23.882 -999 -999 -999  
2001-08-31 09:48:36 51°26.189 2°23.821 -999 -999 -999  
2001-08-31 09:49:36 51°26.404 2°23.742 -999 -999 -999  
2001-08-31 09:50:36 51°26.62 2°23.669 -999 -999 -999  
2001-08-31 09:51:36 51°26.841 2°23.603 -999 -999 -999  
2001-08-31 09:52:36 51°27.057 2°23.531 -999 -999 -999  
2001-08-31 09:53:36 51°27.272 2°23.46 -999 -999 -999  
2001-08-31 09:54:36 51°27.486 2°23.394 -999 -999 -999  
2001-08-31 09:55:36 51°27.7 2°23.307 -999 -999 -999  
2001-08-31 09:56:36 51°27.917 2°23.236 -999 -999 -999  
2001-08-31 09:57:36 51°28.135 2°23.168 -999 -999 -999  
2001-08-31 09:58:36 51°28.353 2°23.109 -999 -999 -999  
2001-08-31 09:59:36 51°28.572 2°23.04 -999 -999 -999  
2001-08-31 10:00:36 51°28.788 2°22.958 -999 -999 -999  
2001-08-31 10:01:36 51°29.007 2°22.888 -999 -999 -999  
2001-08-31 10:02:36 51°29.224 2°22.815 -999 -999 -999  
2001-08-31 10:03:36 51°29.442 2°22.743 -999 -999 -999  
2001-08-31 10:04:36 51°29.659 2°22.677 -999 -999 -999  
2001-08-31 10:05:36 51°29.877 2°22.609 -999 -999 -999  
2001-08-31 10:06:36 51°30.095 2°22.541 -999 -999 -999  
2001-08-31 10:07:36 51°30.313 2°22.468 -999 -999 -999  
2001-08-31 10:08:36 51°30.531 2°22.405 -999 -999 -999  
2001-08-31 10:09:36 51°30.749 2°22.336 -999 -999 -999  
2001-08-31 10:10:36 51°30.967 2°22.265 -999 -999 -999  
2001-08-31 10:11:36 51°31.19 2°22.239 -999 -999 -999  
2001-08-31 10:12:36 51°31.411 2°22.196 -999 -999 -999  
2001-08-31 10:13:36 51°31.617 2°22.068 -999 -999 -999  
2001-08-31 10:14:36 51°31.793 2°21.864 -999 -999 -999  
2001-08-31 10:15:36 51°31.962 2°21.642 -999 -999 -999  
2001-08-31 10:16:36 51°32.137 2°21.431 -999 -999 -999  
2001-08-31 10:17:36 51°32.308 2°21.207 -999 -999 -999  
2001-08-31 10:18:36 51°32.466 2°20.968 -999 -999 -999  
2001-08-31 10:19:36 51°32.642 2°20.76 -999 -999 -999  
2001-08-31 10:20:36 51°32.823 2°20.561 -999 -999 -999  
2001-08-31 10:21:36 51°32.999 2°20.353 -999 -999 -999  
2001-08-31 10:22:36 51°33.171 2°20.133 -999 -999 -999  
2001-08-31 10:23:36 51°33.325 2°19.883 -999 -999 -999  
2001-08-31 10:24:36 51°33.486 2°19.646 -999 -999 -999  
2001-08-31 10:25:36 51°33.659 2°19.43 -999 -999 -999  
2001-08-31 10:26:36 51°33.821 2°19.195 -999 -999 -999  
2001-08-31 10:27:36 51°33.997 2°18.982 -999 -999 -999  
2001-08-31 10:28:36 51°34.171 2°18.768 -999 -999 -999  
2001-08-31 10:29:36 51°34.348 2°18.559 -999 -999 -999  
2001-08-31 10:30:36 51°34.522 2°18.346 -999 -999 -999  
2001-08-31 10:31:36 51°34.702 2°18.148 -999 -999 -999  
2001-08-31 10:32:36 51°34.919 2°18.085 -999 -999 -999  
2001-08-31 10:33:36 51°35.143 2°18.106 -999 -999 -999  
2001-08-31 10:34:36 51°35.332 2°18.307 -999 -999 -999  
2001-08-31 10:35:36 51°35.517 2°18.533 -999 -999 -999  
2001-08-31 10:36:36 51°35.7 2°18.759 -999 -999 -999  
2001-08-31 10:37:36 51°35.883 2°18.986 -999 -999 -999  
2001-08-31 10:38:36 51°36.068 2°19.208 -999 -999 -999  
2001-08-31 10:39:36 51°36.248 2°19.441 -999 -999 -999  
2001-08-31 10:40:36 51°36.429 2°19.673 -999 -999 -999  
2001-08-31 10:41:36 51°36.607 2°19.917 -999 -999 -999  
2001-08-31 10:42:36 51°36.78 2°20.167 -999 -999 -999  
2001-08-31 10:43:36 51°36.958 2°20.416 -999 -999 -999  
2001-08-31 10:44:36 51°37.134 2°20.667 -999 -999 -999  
2001-08-31 10:45:36 51°37.31 2°20.917 -999 -999 -999  
2001-08-31 10:46:36 51°37.484 2°21.175 -999 -999 -999  
2001-08-31 10:47:36 51°37.662 2°21.425 -999 -999 -999  
2001-08-31 10:48:36 51°37.833 2°21.685 -999 -999 -999  
2001-08-31 10:49:36 51°38.01 2°21.939 -999 -999 -999  
2001-08-31 10:50:36 51°38.188 2°22.188 -999 -999 -999  
2001-08-31 10:51:36 51°38.376 2°22.419 -999 -999 -999  
2001-08-31 10:52:36 51°38.563 2°22.658 -999 -999 -999  
2001-08-31 10:53:36 51°38.744 2°22.908 -999 -999 -999  
2001-08-31 10:54:36 51°38.929 2°23.151 -999 -999 -999  
2001-08-31 10:55:36 51°39.11 2°23.398 -999 -999 -999  
2001-08-31 10:56:36 51°39.291 2°23.648 -999 -999 -999  
2001-08-31 10:57:36 51°39.469 2°23.905 -999 -999 -999  
2001-08-31 10:58:36 51°39.648 2°24.159 -999 -999 -999  
2001-08-31 10:59:36 51°39.834 2°24.404 -999 -999 -999  
2001-08-31 11:00:36 51°40.023 2°24.643 -999 -999 -999  
2001-08-31 11:01:36 51°40.211 2°24.885 -999 -999 -999  
2001-08-31 11:02:36 51°40.395 2°25.133 -999 -999 -999  
2001-08-31 11:03:36 51°40.583 2°25.374 -999 -999 -999  
2001-08-31 11:04:36 51°40.768 2°25.621 -999 -999 -999  
2001-08-31 11:05:36 51°40.956 2°25.866 -999 -999 -999  
2001-08-31 11:06:36 51°41.143 2°26.118 -999 -999 -999  
2001-08-31 11:07:36 51°41.327 2°26.368 -999 -999 -999  
2001-08-31 11:08:36 51°41.512 2°26.619 -999 -999 -999  
2001-08-31 11:09:36 51°41.702 2°26.86 -999 -999 -999  
2001-08-31 11:10:36 51°41.88 2°27.121 -999 -999 -999  
2001-08-31 11:11:36 51°42.062 2°27.376 -999 -999 -999  
2001-08-31 11:12:36 51°42.244 2°27.627 -999 -999 -999  
2001-08-31 11:13:36 51°42.423 2°27.886 -999 -999 -999  
2001-08-31 11:14:36 51°42.604 2°28.142 -999 -999 -999  
2001-08-31 11:15:36 51°42.785 2°28.399 -999 -999 -999  
2001-08-31 11:16:36 51°42.972 2°28.646 -999 -999 -999  
2001-08-31 11:17:36 51°43.164 2°28.887 -999 -999 -999  
2001-08-31 11:18:36 51°43.354 2°29.13 -999 -999 -999  
2001-08-31 11:19:36 51°43.54 2°29.375 -999 -999 -999  
2001-08-31 11:20:36 51°43.727 2°29.623 -999 -999 -999  
2001-08-31 11:21:36 51°43.912 2°29.874 -999 -999 -999  
2001-08-31 11:22:36 51°44.094 2°30.13 -999 -999 -999  
2001-08-31 11:23:36 51°44.28 2°30.378 -999 -999 -999  
2001-08-31 11:24:36 51°44.465 2°30.628 -999 -999 -999  
2001-08-31 11:25:36 51°44.65 2°30.878 -999 -999 -999  
2001-08-31 11:26:36 51°44.836 2°31.128 -999 -999 -999  
2001-08-31 11:27:36 51°45.02 2°31.383 -999 -999 -999  
2001-08-31 11:28:36 51°45.205 2°31.634 -999 -999 -999  
2001-08-31 11:29:36 51°45.389 2°31.889 -999 -999 -999  
2001-08-31 11:30:36 51°45.575 2°32.143 -999 -999 -999  
2001-08-31 11:31:36 51°45.764 2°32.393 -999 -999 -999  
2001-08-31 11:32:36 51°45.951 2°32.646 -999 -999 -999  
2001-08-31 11:33:36 51°46.107 2°32.936 -999 -999 -999  
2001-08-31 11:34:36 51°46.098 2°33.3 -999 -999 -999  
2001-08-31 11:35:36 51°45.951 2°33.575 -999 -999 -999  
2001-08-31 11:36:36 51°45.792 2°33.834 -999 -999 -999  
2001-08-31 11:37:36 51°45.621 2°34.062 -999 -999 -999  
2001-08-31 11:38:36 51°45.445 2°34.271 -999 -999 -999  
2001-08-31 11:39:36 51°45.265 2°34.474 -999 -999 -999  
2001-08-31 11:40:36 51°45.075 2°34.662 -999 -999 -999  
2001-08-31 11:41:36 51°44.901 2°34.885 -999 -999 -999  
2001-08-31 11:42:36 51°44.728 2°35.097 -999 -999 -999  
2001-08-31 11:43:36 51°44.551 2°35.297 -999 -999 -999  
2001-08-31 11:44:36 51°44.362 2°35.476 -999 -999 -999  
2001-08-31 11:45:36 51°44.177 2°35.659 -999 -999 -999  
2001-08-31 11:46:36 51°43.993 2°35.85 -999 -999 -999  
2001-08-31 11:47:36 51°43.814 2°36.055 -999 -999 -999  
2001-08-31 11:48:36 51°43.643 2°36.277 -999 -999 -999  
2001-08-31 11:49:36 51°43.462 2°36.479 -999 -999 -999  
2001-08-31 11:50:36 51°43.278 2°36.675 -999 -999 -999  
2001-08-31 11:51:36 51°43.101 2°36.891 -999 -999 -999  
2001-08-31 11:52:36 51°42.921 2°37.103 -999 -999 -999  
2001-08-31 11:53:36 51°42.743 2°37.314 -999 -999 -999  
2001-08-31 11:54:36 51°42.556 2°37.509 -999 -999 -999  
2001-08-31 11:55:36 51°42.382 2°37.727 -999 -999 -999  
2001-08-31 11:56:36 51°42.208 2°37.949 -999 -999 -999  
2001-08-31 11:57:36 51°42.024 2°38.139 -999 -999 -999  
2001-08-31 11:58:36 51°41.845 2°38.339 -999 -999 -999  
2001-08-31 11:59:36 51°41.666 2°38.528 -999 -999 -999  
2001-08-31 12:00:36 51°41.494 2°38.738 -999 -999 -999  
2001-08-31 12:01:36 51°41.317 2°38.932 -999 -999 -999  
2001-08-31 12:02:36 51°41.138 2°39.133 -999 -999 -999  
2001-08-31 12:03:36 51°40.958 2°39.345 -999 -999 -999  
2001-08-31 12:04:36 51°40.781 2°39.544 -999 -999 -999  
2001-08-31 12:05:36 51°40.604 2°39.749 -999 -999 -999  
2001-08-31 12:06:36 51°40.42 2°39.945 -999 -999 -999  
2001-08-31 12:07:36 51°40.242 2°40.158 -999 -999 -999  
2001-08-31 12:08:36 51°40.052 2°40.332 -999 -999 -999  
2001-08-31 12:09:36 51°39.871 2°40.524 -999 -999 -999  
2001-08-31 12:10:36 51°39.696 2°40.728 -999 -999 -999  
2001-08-31 12:11:36 51°39.547 2°40.994 -999 -999 -999  
2001-08-31 12:12:36 51°39.416 2°41.296 -999 -999 -999  
2001-08-31 12:13:36 51°39.311 2°41.633 -999 -999 -999  
2001-08-31 12:14:36 51°39.221 2°41.978 -999 -999 -999  
2001-08-31 12:15:36 51°39.119 2°42.313 -999 -999 -999  
2001-08-31 12:16:36 51°39.033 2°42.658 -999 -999 -999  
2001-08-31 12:17:36 51°38.941 2°42.997 -999 -999 -999  
2001-08-31 12:18:36 51°38.853 2°43.339 -999 -999 -999  
2001-08-31 12:19:36 51°38.765 2°43.683 -999 -999 -999  
2001-08-31 12:20:36 51°38.685 2°44.038 -999 -999 -999  
2001-08-31 12:21:36 51°38.613 2°44.396 -999 -999 -999  
2001-08-31 12:22:36 51°38.527 2°44.736 -999 -999 -999  
2001-08-31 12:23:36 51°38.433 2°45.074 -999 -999 -999  
2001-08-31 12:24:36 51°38.336 2°45.404 -999 -999 -999  
2001-08-31 12:25:36 51°38.224 2°45.713 -999 -999 -999  
2001-08-31 12:26:36 51°38.033 2°45.837 -999 -999 -999  
2001-08-31 12:27:36 51°37.83 2°45.823 -999 -999 -999  
2001-08-31 12:28:36 51°37.632 2°45.753 -999 -999 -999  
2001-08-31 12:29:36 51°37.433 2°45.682 -999 -999 -999  
2001-08-31 12:30:36 51°37.236 2°45.611 -999 -999 -999  
2001-08-31 12:31:36 51°37.036 2°45.555 -999 -999 -999  
2001-08-31 12:32:36 51°36.839 2°45.488 -999 -999 -999  
2001-08-31 12:33:36 51°36.71 2°45.286 -999 -999 -999  
2001-08-31 12:34:36 51°36.768 2°44.976 -999 -999 -999  
2001-08-31 12:35:36 51°36.872 2°44.677 -999 -999 -999  
2001-08-31 12:36:36 51°36.987 2°44.388 -999 -999 -999  
2001-08-31 12:37:36 51°37.114 2°44.098 -999 -999 -999  
2001-08-31 12:38:36 51°37.243 2°43.816 -999 -999 -999  
2001-08-31 12:39:36 51°37.383 2°43.54 -999 -999 -999  
2001-08-31 12:40:36 51°37.507 2°43.249 -999 -999 -999  
2001-08-31 12:41:36 51°37.635 2°42.962 -999 -999 -999  
2001-08-31 12:42:36 51°37.755 2°42.667 -999 -999 -999  
2001-08-31 12:43:36 51°37.892 2°42.39 -999 -999 -999  
2001-08-31 12:44:36 51°38.035 2°42.119 -999 -999 -999  
2001-08-31 12:45:36 51°38.184 2°41.857 -999 -999 -999  
2001-08-31 12:46:36 51°38.298 2°41.573 -999 -999 -999  
2001-08-31 12:47:36 51°38.31 2°41.253 -999 -999 -999  
2001-08-31 12:48:36 51°38.315 2°40.926 -999 -999 -999  
2001-08-31 12:49:36 51°38.329 2°40.602 -999 -999 -999  
2001-08-31 12:50:36 51°38.311 2°40.282 -999 -999 -999  
2001-08-31 12:51:36 51°38.255 2°39.972 -999 -999 -999  
2001-08-31 12:52:36 51°38.194 2°39.665 -999 -999 -999  
2001-08-31 12:53:36 51°38.047 2°39.499 -999 -999 -999  
2001-08-31 12:54:36 51°37.857 2°39.41 -999 -999 -999  
2001-08-31 12:55:36 51°37.666 2°39.307 -999 -999 -999  
2001-08-31 12:56:36 51°37.474 2°39.207 -999 -999 -999  
2001-08-31 12:57:36 51°37.278 2°39.117 -999 -999 -999  
2001-08-31 12:58:36 51°37.083 2°39.024 -999 -999 -999  
2001-08-31 12:59:36 51°36.887 2°38.931 -999 -999 -999  
2001-08-31 13:00:36 51°36.69 2°38.833 -999 -999 -999  
2001-08-31 13:01:36 51°36.493 2°38.738 -999 -999 -999  
2001-08-31 13:02:36 51°36.297 2°38.644 -999 -999 -999  
2001-08-31 13:03:36 51°36.105 2°38.54 -999 -999 -999  
2001-08-31 13:04:36 51°35.911 2°38.444 -999 -999 -999  
2001-08-31 13:05:36 51°35.718 2°38.342 -999 -999 -999  
2001-08-31 13:06:36 51°35.521 2°38.248 -999 -999 -999  
2001-08-31 13:07:36 51°35.322 2°38.164 -999 -999 -999  
2001-08-31 13:08:36 51°35.125 2°38.189 -999 -999 -999  
2001-08-31 13:09:36 51°35 2°38.475 -999 -999 -999  
2001-08-31 13:10:36 51°34.892 2°38.788 -999 -999 -999  
2001-08-31 13:11:36 51°34.778 2°39.103 -999 -999 -999  
2001-08-31 13:12:36 51°34.665 2°39.42 -999 -999 -999  
2001-08-31 13:13:36 51°34.549 2°39.733 -999 -999 -999  
2001-08-31 13:14:36 51°34.436 2°40.052 -999 -999 -999  
2001-08-31 13:15:36 51°34.33 2°40.38 -999 -999 -999  
2001-08-31 13:16:36 51°34.232 2°40.716 -999 -999 -999  
2001-08-31 13:17:36 51°34.143 2°41.053 -999 -999 -999  
2001-08-31 13:18:36 51°34.043 2°41.389 -999 -999 -999  
2001-08-31 13:19:36 51°33.945 2°41.726 -999 -999 -999  
2001-08-31 13:20:36 51°33.841 2°42.052 -999 -999 -999  
2001-08-31 13:21:36 51°33.725 2°42.366 -999 -999 -999  
2001-08-31 13:22:36 51°33.58 2°42.621 -999 -999 -999  
2001-08-31 13:23:36 51°33.387 2°42.708 -999 -999 -999  
2001-08-31 13:24:36 51°33.189 2°42.683 -999 -999 -999  
2001-08-31 13:25:36 51°32.997 2°42.59 -999 -999 -999  
2001-08-31 13:26:36 51°32.809 2°42.476 -999 -999 -999  
2001-08-31 13:27:36 51°32.619 2°42.362 -999 -999 -999  
2001-08-31 13:28:36 51°32.43 2°42.248 -999 -999 -999  
2001-08-31 13:29:36 51°32.239 2°42.134 -999 -999 -999  
2001-08-31 13:30:36 51°32.047 2°42.025 -999 -999 -999  
2001-08-31 13:31:36 51°31.854 2°41.93 -999 -999 -999  
2001-08-31 13:32:36 51°31.66 2°41.821 -999 -999 -999  
2001-08-31 13:33:36 51°31.466 2°41.713 -999 -999 -999  
2001-08-31 13:34:36 51°31.279 2°41.583 -999 -999 -999  
2001-08-31 13:35:36 51°31.088 2°41.457 -999 -999 -999  
2001-08-31 13:36:36 51°30.897 2°41.336 -999 -999 -999  
2001-08-31 13:37:36 51°30.706 2°41.223 -999 -999 -999  
2001-08-31 13:38:36 51°30.541 2°41.049 -999 -999 -999  
2001-08-31 13:39:36 51°30.444 2°40.773 -999 -999 -999  
2001-08-31 13:40:36 51°30.44 2°40.442 -999 -999 -999  
2001-08-31 13:41:36 51°30.427 2°40.103 -999 -999 -999  
2001-08-31 13:42:36 51°30.429 2°39.763 -999 -999 -999  
2001-08-31 13:43:36 51°30.424 2°39.426 -999 -999 -999  
2001-08-31 13:44:36 51°30.424 2°39.087 -999 -999 -999  
2001-08-31 13:45:36 51°30.423 2°38.749 -999 -999 -999  
2001-08-31 13:46:36 51°30.421 2°38.412 -999 -999 -999  
2001-08-31 13:47:36 51°30.416 2°38.077 -999 -999 -999  
2001-08-31 13:48:36 51°30.417 2°37.742 -999 -999 -999  
2001-08-31 13:49:36 51°30.426 2°37.407 -999 -999 -999  
2001-08-31 13:50:36 51°30.451 2°37.076 -999 -999 -999  
2001-08-31 13:51:36 51°30.586 2°36.8 -999 -999 -999  
2001-08-31 13:52:36 51°30.698 2°36.495 -999 -999 -999  
2001-08-31 13:53:36 51°30.775 2°36.168 -999 -999 -999  
2001-08-31 13:54:36 51°30.852 2°35.84 -999 -999 -999  
2001-08-31 13:55:36 51°30.917 2°35.504 -999 -999 -999  
2001-08-31 13:56:36 51°30.981 2°35.171 -999 -999 -999  
2001-08-31 13:57:36 51°30.953 2°34.849 -999 -999 -999  
2001-08-31 13:58:36 51°30.769 2°34.754 -999 -999 -999  
2001-08-31 13:59:36 51°30.574 2°34.907 -999 -999 -999  
2001-08-31 14:00:36 51°30.38 2°35.057 -999 -999 -999  
2001-08-31 14:01:36 51°30.192 2°35.226 -999 -999 -999  
2001-08-31 14:02:36 51°29.999 2°35.387 -999 -999 -999  
2001-08-31 14:03:36 51°29.807 2°35.55 -999 -999 -999  
2001-08-31 14:04:36 51°29.609 2°35.688 -999 -999 -999  
2001-08-31 14:05:36 51°29.417 2°35.839 -999 -999 -999  
2001-08-31 14:06:36 51°29.229 2°36.008 -999 -999 -999  
2001-08-31 14:07:36 51°29.037 2°36.163 -999 -999 -999  
2001-08-31 14:08:36 51°28.837 2°36.271 -999 -999 -999  
2001-08-31 14:09:36 51°28.627 2°36.354 -999 -999 -999  
2001-08-31 14:10:36 51°28.417 2°36.45 -999 -999 -999  
2001-08-31 14:11:36 51°28.208 2°36.55 -999 -999 -999  
2001-08-31 14:12:36 51°27.998 2°36.646 -999 -999 -999  
2001-08-31 14:13:36 51°27.786 2°36.735 -999 -999 -999  
2001-08-31 14:14:36 51°27.576 2°36.815 -999 -999 -999  
2001-08-31 14:15:36 51°27.368 2°36.904 -999 -999 -999  
2001-08-31 14:16:36 51°27.162 2°36.997 -999 -999 -999  
2001-08-31 14:17:36 51°26.956 2°37.084 -999 -999 -999  
2001-08-31 14:18:36 51°26.748 2°37.16 -999 -999 -999  
2001-08-31 14:19:36 51°26.537 2°37.226 -999 -999 -999  
2001-08-31 14:20:36 51°26.327 2°37.299 -999 -999 -999  
2001-08-31 14:21:36 51°26.114 2°37.365 -999 -999 -999  
2001-08-31 14:22:36 51°25.907 2°37.445 -999 -999 -999  
2001-08-31 14:23:36 51°25.699 2°37.524 -999 -999 -999  
2001-08-31 14:24:36 51°25.488 2°37.606 -999 -999 -999  
2001-08-31 14:25:36 51°25.277 2°37.665 -999 -999 -999  
2001-08-31 14:26:36 51°25.065 2°37.73 -999 -999 -999  
2001-08-31 14:27:36 51°24.85 2°37.784 -999 -999 -999  
2001-08-31 14:28:36 51°24.634 2°37.839 -999 -999 -999  
2001-08-31 14:29:36 51°24.418 2°37.89 -999 -999 -999  
2001-08-31 14:30:36 51°24.202 2°37.946 -999 -999 -999  
2001-08-31 14:31:36 51°23.991 2°38.016 -999 -999 -999  
2001-08-31 14:32:36 51°23.777 2°38.06 -999 -999 -999  
2001-08-31 14:33:36 51°23.561 2°38.104 -999 -999 -999  
2001-08-31 14:34:36 51°23.351 2°38.17 -999 -999 -999  
2001-08-31 14:35:36 51°23.137 2°38.226 -999 -999 -999  
2001-08-31 14:36:36 51°22.922 2°38.267 -999 -999 -999  
2001-08-31 14:37:36 51°22.707 2°38.316 -999 -999 -999  
2001-08-31 14:38:36 51°22.491 2°38.368 -999 -999 -999  
2001-08-31 14:39:36 51°22.275 2°38.432 -999 -999 -999  
2001-08-31 14:40:36 51°22.059 2°38.499 -999 -999 -999  
2001-08-31 14:41:36 51°21.847 2°38.572 -999 -999 -999  
2001-08-31 14:42:36 51°21.636 2°38.664 -999 -999 -999  
2001-08-31 14:43:36 51°21.442 2°38.826 -999 -999 -999  
2001-08-31 14:44:36 51°21.263 2°39.032 -999 -999 -999  
2001-08-31 14:45:36 51°21.101 2°39.278 -999 -999 -999  
2001-08-31 14:46:36 51°21.001 2°39.596 -999 -999 -999  
2001-08-31 14:47:36 51°20.905 2°39.919 -999 -999 -999  
2001-08-31 14:48:36 51°20.815 2°40.251 -999 -999 -999  
2001-08-31 14:49:36 51°20.729 2°40.581 -999 -999 -999  
2001-08-31 14:50:36 51°20.627 2°40.892 -999 -999 -999  
2001-08-31 14:51:36 51°20.517 2°41.197 -999 -999 -999  
2001-08-31 14:52:36 51°20.413 2°41.517 -999 -999 -999  
2001-08-31 14:53:36 51°20.314 2°41.838 -999 -999 -999  
2001-08-31 14:54:36 51°20.223 2°42.159 -999 -999 -999  
2001-08-31 14:55:36 51°20.146 2°42.499 -999 -999 -999  
2001-08-31 14:56:36 51°20.059 2°42.827 -999 -999 -999  
2001-08-31 14:57:36 51°19.974 2°43.159 -999 -999 -999  
2001-08-31 14:58:36 51°19.887 2°43.498 -999 -999 -999  
2001-08-31 14:59:36 51°19.813 2°43.842 -999 -999 -999  
2001-08-31 15:00:36 51°19.715 2°44.161 -999 -999 -999  
2001-08-31 15:01:36 51°19.623 2°44.484 -999 -999 -999  
2001-08-31 15:02:36 51°19.538 2°44.815 -999 -999 -999  
2001-08-31 15:03:36 51°19.443 2°45.135 -999 -999 -999  
2001-08-31 15:04:36 51°19.357 2°45.453 -999 -999 -999  
2001-08-31 15:05:36 51°19.274 2°45.776 -999 -999 -999  
2001-08-31 15:06:36 51°19.177 2°46.098 -999 -999 -999  
2001-08-31 15:07:36 51°19.091 2°46.43 -999 -999 -999  
2001-08-31 15:08:36 51°19.01 2°46.759 -999 -999 -999  
2001-08-31 15:09:36 51°18.933 2°47.089 -999 -999 -999  
2001-08-31 15:10:36 51°18.854 2°47.418 -999 -999 -999  
2001-08-31 15:11:36 51°18.774 2°47.741 -999 -999 -999  
2001-08-31 15:12:36 51°18.691 2°48.066 -999 -999 -999  
2001-08-31 15:13:36 51°18.61 2°48.392 -999 -999 -999  
2001-08-31 15:14:36 51°18.528 2°48.711 -999 -999 -999  
2001-08-31 15:15:36 51°18.434 2°49.026 -999 -999 -999  
2001-08-31 15:16:36 51°18.35 2°49.346 -999 -999 -999  
2001-08-31 15:17:36 51°18.262 2°49.665 -999 -999 -999  
2001-08-31 15:18:36 51°18.169 2°49.986 -999 -999 -999  
2001-08-31 15:19:36 51°18.086 2°50.312 -999 -999 -999  
2001-08-31 15:20:36 51°17.993 2°50.622 -999 -999 -999  
2001-08-31 15:21:36 51°17.885 2°50.927 -999 -999 -999  
2001-08-31 15:22:36 51°17.778 2°51.233 -999 -999 -999  
2001-08-31 15:23:36 51°17.661 2°51.527 -999 -999 -999  
2001-08-31 15:24:36 51°17.549 2°51.83 -999 -999 -999  
2001-08-31 15:25:36 51°17.388 2°52.066 -999 -999 -999  
2001-08-31 15:26:36 51°17.2 2°52.257 -999 -999 -999  
2001-08-31 15:27:36 51°17.01 2°52.446 -999 -999 -999  
2001-08-31 15:28:36 51°16.823 2°52.637 -999 -999 -999  
2001-08-31 15:29:36 51°16.637 2°52.826 -999 -999 -999  
2001-08-31 15:30:36 51°16.446 2°53.007 -999 -999 -999  
2001-08-31 15:31:36 51°16.252 2°53.189 -999 -999 -999  
2001-08-31 15:32:36 51°16.061 2°53.376 -999 -999 -999  
2001-08-31 15:33:36 51°15.872 2°53.56 -999 -999 -999  
2001-08-31 15:34:36 51°15.68 2°53.746 -999 -999 -999  
2001-08-31 15:35:36 51°15.488 2°53.929 -999 -999 -999  
2001-08-31 15:36:36 51°15.3 2°54.116 -999 -999 -999  
2001-08-31 15:37:36 51°15.116 2°54.305 -999 -999 -999  
2001-08-31 15:38:36 51°14.931 2°54.494 -999 -999 -999  
2001-08-31 15:39:36 51°14.776 2°54.654 -999 -999 -999  
2001-08-31 15:40:36 51°14.692 2°54.744 -999 -999 -999  
2001-08-31 15:41:36 51°14.66 2°54.822 -999 -999 -999  
2001-08-31 15:42:36 51°14.665 2°54.878 -999 -999 -999  
2001-08-31 15:43:36 51°14.681 2°54.904 -999 -999 -999  
2001-08-31 15:44:36 51°14.697 2°54.918 -999 -999 -999  
2001-08-31 15:45:36 51°14.711 2°54.936 -999 -999 -999  
2001-08-31 15:46:36 51°14.723 2°54.955 -999 -999 -999  
2001-08-31 15:47:36 51°14.735 2°54.972 -999 -999 -999  
2001-08-31 15:48:36 51°14.748 2°54.983 -999 -999 -999  
2001-08-31 15:49:36 51°14.764 2°54.989 -999 -999 -999  
2001-08-31 15:50:36 51°14.797 2°54.963 -999 -999 -999  
2001-08-31 15:51:36 51°14.795 2°54.848 -999 -999 -999  
2001-08-31 15:52:36 51°14.645 2°54.833 -999 -999 -999  
2001-08-31 15:53:36 51°14.446 2°54.932 -999 -999 -999  
2001-08-31 15:54:36 51°14.298 2°55.168 -999 -999 -999  
2001-08-31 15:55:36 51°14.16 2°55.386 -999 -999 -999  
2001-08-31 15:56:36 51°14.028 2°55.484 -999 -999 -999  
2001-08-31 15:57:40 51°13.921 2°55.558 -999 -999 -999  
2001-08-31 15:58:40 51°13.848 2°55.61 -999 -999 -999  
2001-08-31 15:59:40 51°13.794 2°55.655 -999 -999 -999  
2001-08-31 16:00:40 51°13.756 2°55.703 -999 -999 -999  
2001-08-31 16:01:40 51°13.725 2°55.759 -999 -999 -999  
2001-08-31 16:02:40 51°13.703 2°55.822 -999 -999 -999  
2001-08-31 16:03:40 51°13.69 2°55.879 -999 -999 -999  
2001-08-31 16:04:40 51°13.678 2°55.916 -999 -999 -999  
2001-08-31 16:05:41 51°13.676 2°55.923 -999 -999 -999  
2001-08-31 16:06:40 51°13.677 2°55.924 -999 -999 -999  
2001-08-31 16:07:40 51°13.677 2°55.923 -999 -999 -999  
2001-08-31 16:08:41 51°13.677 2°55.923 -999 -999 -999  
2001-08-31 16:09:40 51°13.676 2°55.923 -999 -999 -999  
2001-08-31 16:10:41 51°13.676 2°55.923 -999 -999 -999  
2001-08-31 16:11:42 51°13.676 2°55.924 -999 -999 -999